sensor_id;sensor_type;location;lat;lon;timestamp;P1;durP1;ratioP1;P2;durP2;ratioP2
3843;SDS011;1937;51.444;6.484;2024-01-10T00:01:32;8.53;;;5.40;;
3843;SDS011;1937;51.444;6.484;2024-01-10T00:03:59;10.17;;;5.67;;
3843;SDS011;1937;51.444;6.484;2024-01-10T00:06:26;4.70;;;4.03;;
3843;SDS011;1937;51.444;6.484;2024-01-10T00:08:53;10.20;;;4.03;;
3843;SDS011;1937;51.444;6.484;2024-01-10T00:11:21;13.03;;;4.93;;
3843;SDS011;1937;51.444;6.484;2024-01-10T00:13:48;10.67;;;5.50;;
3843;SDS011;1937;51.444;6.484;2024-01-10T00:16:15;12.50;;;5.70;;
3843;SDS011;1937;51.444;6.484;2024-01-10T00:18:42;10.63;;;4.63;;
3843;SDS011;1937;51.444;6.484;2024-01-10T00:21:09;11.93;;;4.90;;
3843;SDS011;1937;51.444;6.484;2024-01-10T00:23:36;6.83;;;4.50;;
3843;SDS011;1937;51.444;6.484;2024-01-10T00:26:03;10.83;;;5.10;;
3843;SDS011;1937;51.444;6.484;2024-01-10T00:28:31;6.03;;;4.13;;
3843;SDS011;1937;51.444;6.484;2024-01-10T00:30:58;7.27;;;4.13;;
3843;SDS011;1937;51.444;6.484;2024-01-10T00:33:25;5.63;;;4.37;;
3843;SDS011;1937;51.444;6.484;2024-01-10T00:35:51;6.40;;;4.20;;
3843;SDS011;1937;51.444;6.484;2024-01-10T00:38:18;7.40;;;4.10;;
3843;SDS011;1937;51.444;6.484;2024-01-10T00:40:45;8.60;;;4.33;;
3843;SDS011;1937;51.444;6.484;2024-01-10T00:43:12;11.77;;;4.93;;
3843;SDS011;1937;51.444;6.484;2024-01-10T00:45:40;10.93;;;4.70;;
3843;SDS011;1937;51.444;6.484;2024-01-10T00:48:07;8.80;;;5.23;;
3843;SDS011;1937;51.444;6.484;2024-01-10T00:50:33;4.27;;;3.90;;
3843;SDS011;1937;51.444;6.484;2024-01-10T00:53:00;8.80;;;4.70;;
3843;SDS011;1937;51.444;6.484;2024-01-10T00:55:27;11.40;;;5.07;;
3843;SDS011;1937;51.444;6.484;2024-01-10T00:57:53;13.30;;;4.90;;
3843;SDS011;1937;51.444;6.484;2024-01-10T01:00:20;9.43;;;4.83;;
3843;SDS011;1937;51.444;6.484;2024-01-10T01:02:48;6.77;;;4.80;;
3843;SDS011;1937;51.444;6.484;2024-01-10T01:05:15;13.03;;;5.30;;
3843;SDS011;1937;51.444;6.484;2024-01-10T01:07:41;9.40;;;4.40;;
3843;SDS011;1937;51.444;6.484;2024-01-10T01:10:08;8.17;;;5.23;;
3843;SDS011;1937;51.444;6.484;2024-01-10T01:12:35;9.40;;;4.90;;
3843;SDS011;1937;51.444;6.484;2024-01-10T01:15:02;20.80;;;4.60;;
3843;SDS011;1937;51.444;6.484;2024-01-10T01:17:29;8.00;;;5.17;;
3843;SDS011;1937;51.444;6.484;2024-01-10T01:19:57;7.20;;;4.40;;
3843;SDS011;1937;51.444;6.484;2024-01-10T01:22:24;9.90;;;4.53;;
3843;SDS011;1937;51.444;6.484;2024-01-10T01:24:51;8.57;;;4.70;;
3843;SDS011;1937;51.444;6.484;2024-01-10T01:27:18;4.87;;;4.33;;
3843;SDS011;1937;51.444;6.484;2024-01-10T01:29:45;6.63;;;4.07;;
3843;SDS011;1937;51.444;6.484;2024-01-10T01:32:11;8.80;;;5.10;;
3843;SDS011;1937;51.444;6.484;2024-01-10T01:34:38;7.33;;;4.20;;
3843;SDS011;1937;51.444;6.484;2024-01-10T01:37:06;7.47;;;3.17;;
3843;SDS011;1937;51.444;6.484;2024-01-10T01:39:33;9.53;;;4.40;;
3843;SDS011;1937;51.444;6.484;2024-01-10T01:41:59;12.57;;;5.30;;
3843;SDS011;1937;51.444;6.484;2024-01-10T01:44:26;9.03;;;3.30;;
3843;SDS011;1937;51.444;6.484;2024-01-10T01:46:52;10.53;;;4.57;;
3843;SDS011;1937;51.444;6.484;2024-01-10T01:49:19;8.83;;;4.00;;
3843;SDS011;1937;51.444;6.484;2024-01-10T01:51:46;9.60;;;5.90;;
3843;SDS011;1937;51.444;6.484;2024-01-10T01:54:15;6.80;;;4.33;;
3843;SDS011;1937;51.444;6.484;2024-01-10T01:56:42;9.80;;;4.80;;
3843;SDS011;1937;51.444;6.484;2024-01-10T01:59:10;7.40;;;4.60;;
3843;SDS011;1937;51.444;6.484;2024-01-10T02:01:38;11.00;;;4.57;;
3843;SDS011;1937;51.444;6.484;2024-01-10T02:04:05;8.83;;;5.20;;
3843;SDS011;1937;51.444;6.484;2024-01-10T02:06:34;10.70;;;5.03;;
3843;SDS011;1937;51.444;6.484;2024-01-10T02:09:01;8.07;;;4.87;;
3843;SDS011;1937;51.444;6.484;2024-01-10T02:11:29;8.60;;;4.33;;
3843;SDS011;1937;51.444;6.484;2024-01-10T02:13:57;9.27;;;4.87;;
3843;SDS011;1937;51.444;6.484;2024-01-10T02:16:24;5.90;;;4.40;;
3843;SDS011;1937;51.444;6.484;2024-01-10T02:18:51;8.83;;;4.77;;
3843;SDS011;1937;51.444;6.484;2024-01-10T02:21:20;10.23;;;4.40;;
3843;SDS011;1937;51.444;6.484;2024-01-10T02:23:47;5.77;;;3.60;;
3843;SDS011;1937;51.444;6.484;2024-01-10T02:26:15;9.67;;;4.57;;
3843;SDS011;1937;51.444;6.484;2024-01-10T02:28:42;7.73;;;4.00;;
3843;SDS011;1937;51.444;6.484;2024-01-10T02:31:09;12.80;;;4.87;;
3843;SDS011;1937;51.444;6.484;2024-01-10T02:33:35;19.13;;;5.70;;
3843;SDS011;1937;51.444;6.484;2024-01-10T02:36:03;12.93;;;5.67;;
3843;SDS011;1937;51.444;6.484;2024-01-10T02:38:33;13.93;;;4.67;;
3843;SDS011;1937;51.444;6.484;2024-01-10T02:41:00;5.60;;;4.23;;
3843;SDS011;1937;51.444;6.484;2024-01-10T02:43:29;7.20;;;4.83;;
3843;SDS011;1937;51.444;6.484;2024-01-10T02:45:57;9.67;;;4.57;;
3843;SDS011;1937;51.444;6.484;2024-01-10T02:48:25;9.60;;;5.47;;
3843;SDS011;1937;51.444;6.484;2024-01-10T02:50:52;11.93;;;5.40;;
3843;SDS011;1937;51.444;6.484;2024-01-10T02:53:21;7.80;;;4.30;;
3843;SDS011;1937;51.444;6.484;2024-01-10T02:55:48;5.33;;;4.03;;
3843;SDS011;1937;51.444;6.484;2024-01-10T02:58:14;9.20;;;4.70;;
3843;SDS011;1937;51.444;6.484;2024-01-10T03:00:44;7.40;;;4.80;;
3843;SDS011;1937;51.444;6.484;2024-01-10T03:03:11;8.90;;;5.23;;
3843;SDS011;1937;51.444;6.484;2024-01-10T03:05:39;6.13;;;3.90;;
3843;SDS011;1937;51.444;6.484;2024-01-10T03:08:05;6.10;;;4.53;;
3843;SDS011;1937;51.444;6.484;2024-01-10T03:10:32;8.03;;;4.63;;
3843;SDS011;1937;51.444;6.484;2024-01-10T03:12:59;6.67;;;4.83;;
3843;SDS011;1937;51.444;6.484;2024-01-10T03:15:28;8.50;;;5.23;;
3843;SDS011;1937;51.444;6.484;2024-01-10T03:17:57;13.10;;;5.00;;
3843;SDS011;1937;51.444;6.484;2024-01-10T03:20:24;7.07;;;5.80;;
3843;SDS011;1937;51.444;6.484;2024-01-10T03:22:50;8.57;;;4.70;;
3843;SDS011;1937;51.444;6.484;2024-01-10T03:25:17;8.93;;;5.67;;
3843;SDS011;1937;51.444;6.484;2024-01-10T03:27:44;8.27;;;5.10;;
3843;SDS011;1937;51.444;6.484;2024-01-10T03:30:10;8.97;;;5.60;;
3843;SDS011;1937;51.444;6.484;2024-01-10T03:32:37;8.73;;;5.20;;
3843;SDS011;1937;51.444;6.484;2024-01-10T03:35:07;8.07;;;5.30;;
3843;SDS011;1937;51.444;6.484;2024-01-10T03:37:34;7.20;;;4.30;;
3843;SDS011;1937;51.444;6.484;2024-01-10T03:40:01;6.60;;;3.87;;
3843;SDS011;1937;51.444;6.484;2024-01-10T03:42:28;11.63;;;4.40;;
3843;SDS011;1937;51.444;6.484;2024-01-10T03:44:54;8.50;;;4.00;;
3843;SDS011;1937;51.444;6.484;2024-01-10T03:47:21;8.13;;;4.97;;
3843;SDS011;1937;51.444;6.484;2024-01-10T03:49:48;8.30;;;4.23;;
3843;SDS011;1937;51.444;6.484;2024-01-10T03:52:16;6.57;;;3.80;;
3843;SDS011;1937;51.444;6.484;2024-01-10T03:54:44;8.60;;;4.70;;
3843;SDS011;1937;51.444;6.484;2024-01-10T03:57:10;11.07;;;5.40;;
3843;SDS011;1937;51.444;6.484;2024-01-10T03:59:37;10.10;;;6.10;;
3843;SDS011;1937;51.444;6.484;2024-01-10T04:02:05;7.20;;;4.70;;
3843;SDS011;1937;51.444;6.484;2024-01-10T04:04:31;10.17;;;4.53;;
3843;SDS011;1937;51.444;6.484;2024-01-10T04:06:58;7.13;;;4.03;;
3843;SDS011;1937;51.444;6.484;2024-01-10T04:09:26;8.07;;;5.10;;
3843;SDS011;1937;51.444;6.484;2024-01-10T04:11:53;7.03;;;4.70;;
3843;SDS011;1937;51.444;6.484;2024-01-10T04:14:19;10.53;;;4.80;;
3843;SDS011;1937;51.444;6.484;2024-01-10T04:16:46;8.37;;;4.47;;
3843;SDS011;1937;51.444;6.484;2024-01-10T04:19:13;8.40;;;5.67;;
3843;SDS011;1937;51.444;6.484;2024-01-10T04:21:40;7.87;;;5.10;;
3843;SDS011;1937;51.444;6.484;2024-01-10T04:24:09;12.77;;;5.43;;
3843;SDS011;1937;51.444;6.484;2024-01-10T04:26:37;6.23;;;4.40;;
3843;SDS011;1937;51.444;6.484;2024-01-10T04:29:03;9.60;;;5.63;;
3843;SDS011;1937;51.444;6.484;2024-01-10T04:31:30;9.90;;;4.97;;
3843;SDS011;1937;51.444;6.484;2024-01-10T04:33:57;9.97;;;5.57;;
3843;SDS011;1937;51.444;6.484;2024-01-10T04:36:23;10.40;;;4.87;;
3843;SDS011;1937;51.444;6.484;2024-01-10T04:38:50;9.17;;;5.37;;
3843;SDS011;1937;51.444;6.484;2024-01-10T04:41:19;8.13;;;4.50;;
3843;SDS011;1937;51.444;6.484;2024-01-10T04:43:47;8.60;;;4.90;;
3843;SDS011;1937;51.444;6.484;2024-01-10T04:46:14;9.50;;;5.10;;
3843;SDS011;1937;51.444;6.484;2024-01-10T04:48:40;8.10;;;5.27;;
3843;SDS011;1937;51.444;6.484;2024-01-10T04:51:07;8.03;;;6.37;;
3843;SDS011;1937;51.444;6.484;2024-01-10T04:53:33;9.47;;;5.10;;
3843;SDS011;1937;51.444;6.484;2024-01-10T04:56:00;13.23;;;5.60;;
3843;SDS011;1937;51.444;6.484;2024-01-10T04:58:27;11.90;;;5.40;;
3843;SDS011;1937;51.444;6.484;2024-01-10T05:00:56;9.03;;;5.20;;
3843;SDS011;1937;51.444;6.484;2024-01-10T05:03:22;8.33;;;5.23;;
3843;SDS011;1937;51.444;6.484;2024-01-10T05:05:49;8.60;;;5.33;;
3843;SDS011;1937;51.444;6.484;2024-01-10T05:08:16;12.57;;;5.37;;
3843;SDS011;1937;51.444;6.484;2024-01-10T05:10:49;10.00;;;5.17;;
3843;SDS011;1937;51.444;6.484;2024-01-10T05:13:15;9.23;;;5.33;;
3843;SDS011;1937;51.444;6.484;2024-01-10T05:15:42;9.67;;;5.27;;
3843;SDS011;1937;51.444;6.484;2024-01-10T05:18:10;10.90;;;6.77;;
3843;SDS011;1937;51.444;6.484;2024-01-10T05:20:37;10.27;;;5.80;;
3843;SDS011;1937;51.444;6.484;2024-01-10T05:23:04;11.60;;;5.90;;
3843;SDS011;1937;51.444;6.484;2024-01-10T05:25:30;10.53;;;5.10;;
3843;SDS011;1937;51.444;6.484;2024-01-10T05:27:57;10.53;;;4.97;;
3843;SDS011;1937;51.444;6.484;2024-01-10T05:30:24;9.30;;;5.80;;
3843;SDS011;1937;51.444;6.484;2024-01-10T05:32:50;26.67;;;6.20;;
3843;SDS011;1937;51.444;6.484;2024-01-10T05:35:18;18.77;;;6.40;;
3843;SDS011;1937;51.444;6.484;2024-01-10T05:37:45;9.17;;;5.50;;
3843;SDS011;1937;51.444;6.484;2024-01-10T05:40:15;10.50;;;6.07;;
3843;SDS011;1937;51.444;6.484;2024-01-10T05:42:41;10.70;;;4.90;;
3843;SDS011;1937;51.444;6.484;2024-01-10T05:45:08;9.70;;;5.13;;
3843;SDS011;1937;51.444;6.484;2024-01-10T05:47:35;10.00;;;5.40;;
3843;SDS011;1937;51.444;6.484;2024-01-10T05:50:03;10.23;;;6.00;;
3843;SDS011;1937;51.444;6.484;2024-01-10T05:52:33;9.63;;;5.57;;
3843;SDS011;1937;51.444;6.484;2024-01-10T05:54:59;11.83;;;6.27;;
3843;SDS011;1937;51.444;6.484;2024-01-10T05:57:27;11.83;;;6.03;;
3843;SDS011;1937;51.444;6.484;2024-01-10T05:59:55;12.50;;;6.47;;
3843;SDS011;1937;51.444;6.484;2024-01-10T06:02:22;9.03;;;6.20;;
3843;SDS011;1937;51.444;6.484;2024-01-10T06:04:49;13.03;;;6.63;;
3843;SDS011;1937;51.444;6.484;2024-01-10T06:07:16;11.17;;;5.67;;
3843;SDS011;1937;51.444;6.484;2024-01-10T06:09:44;15.00;;;6.40;;
3843;SDS011;1937;51.444;6.484;2024-01-10T06:12:10;11.57;;;6.17;;
3843;SDS011;1937;51.444;6.484;2024-01-10T06:14:37;14.00;;;5.90;;
3843;SDS011;1937;51.444;6.484;2024-01-10T06:17:04;10.90;;;5.40;;
3843;SDS011;1937;51.444;6.484;2024-01-10T06:19:31;12.50;;;6.40;;
3843;SDS011;1937;51.444;6.484;2024-01-10T06:21:58;12.97;;;6.33;;
3843;SDS011;1937;51.444;6.484;2024-01-10T06:24:24;10.13;;;6.43;;
3843;SDS011;1937;51.444;6.484;2024-01-10T06:26:52;18.70;;;6.80;;
3843;SDS011;1937;51.444;6.484;2024-01-10T06:29:19;18.20;;;7.03;;
3843;SDS011;1937;51.444;6.484;2024-01-10T06:31:46;13.30;;;5.83;;
3843;SDS011;1937;51.444;6.484;2024-01-10T06:34:13;10.60;;;5.17;;
3843;SDS011;1937;51.444;6.484;2024-01-10T06:36:41;12.83;;;6.63;;
3843;SDS011;1937;51.444;6.484;2024-01-10T06:39:09;12.93;;;7.50;;
3843;SDS011;1937;51.444;6.484;2024-01-10T06:41:37;11.77;;;6.50;;
3843;SDS011;1937;51.444;6.484;2024-01-10T06:44:08;12.10;;;7.20;;
3843;SDS011;1937;51.444;6.484;2024-01-10T06:46:36;10.00;;;6.17;;
3843;SDS011;1937;51.444;6.484;2024-01-10T06:49:03;11.90;;;6.53;;
3843;SDS011;1937;51.444;6.484;2024-01-10T06:51:29;16.13;;;6.83;;
3843;SDS011;1937;51.444;6.484;2024-01-10T06:53:58;20.60;;;7.27;;
3843;SDS011;1937;51.444;6.484;2024-01-10T06:56:28;15.97;;;6.83;;
3843;SDS011;1937;51.444;6.484;2024-01-10T06:58:55;10.10;;;5.30;;
3843;SDS011;1937;51.444;6.484;2024-01-10T07:01:24;11.67;;;7.73;;
3843;SDS011;1937;51.444;6.484;2024-01-10T07:06:19;8.93;;;6.40;;
3843;SDS011;1937;51.444;6.484;2024-01-10T07:08:48;15.80;;;7.40;;
3843;SDS011;1937;51.444;6.484;2024-01-10T07:11:15;17.00;;;6.20;;
3843;SDS011;1937;51.444;6.484;2024-01-10T07:13:42;10.10;;;6.20;;
3843;SDS011;1937;51.444;6.484;2024-01-10T07:16:09;17.47;;;8.10;;
3843;SDS011;1937;51.444;6.484;2024-01-10T07:18:37;17.73;;;7.43;;
3843;SDS011;1937;51.444;6.484;2024-01-10T07:21:04;14.90;;;6.47;;
3843;SDS011;1937;51.444;6.484;2024-01-10T07:23:31;15.60;;;6.50;;
3843;SDS011;1937;51.444;6.484;2024-01-10T07:25:59;13.90;;;6.10;;
3843;SDS011;1937;51.444;6.484;2024-01-10T07:28:25;14.40;;;6.47;;
3843;SDS011;1937;51.444;6.484;2024-01-10T07:30:52;16.10;;;7.20;;
3843;SDS011;1937;51.444;6.484;2024-01-10T07:33:18;18.10;;;7.33;;
3843;SDS011;1937;51.444;6.484;2024-01-10T07:35:46;17.23;;;7.57;;
3843;SDS011;1937;51.444;6.484;2024-01-10T07:38:13;15.07;;;7.07;;
3843;SDS011;1937;51.444;6.484;2024-01-10T07:40:40;15.10;;;7.60;;
3843;SDS011;1937;51.444;6.484;2024-01-10T07:43:07;13.27;;;7.30;;
3843;SDS011;1937;51.444;6.484;2024-01-10T07:45:36;9.97;;;6.73;;
3843;SDS011;1937;51.444;6.484;2024-01-10T07:48:03;16.97;;;7.57;;
3843;SDS011;1937;51.444;6.484;2024-01-10T07:50:30;16.37;;;7.00;;
3843;SDS011;1937;51.444;6.484;2024-01-10T07:52:58;18.03;;;6.70;;
3843;SDS011;1937;51.444;6.484;2024-01-10T07:55:26;10.07;;;6.63;;
3843;SDS011;1937;51.444;6.484;2024-01-10T07:57:54;16.03;;;7.70;;
3843;SDS011;1937;51.444;6.484;2024-01-10T08:00:21;14.47;;;6.37;;
3843;SDS011;1937;51.444;6.484;2024-01-10T08:02:48;15.40;;;7.20;;
3843;SDS011;1937;51.444;6.484;2024-01-10T08:05:15;15.40;;;7.20;;
3843;SDS011;1937;51.444;6.484;2024-01-10T08:07:41;21.90;;;8.33;;
3843;SDS011;1937;51.444;6.484;2024-01-10T08:10:10;16.40;;;7.60;;
3843;SDS011;1937;51.444;6.484;2024-01-10T08:12:38;13.87;;;6.97;;
3843;SDS011;1937;51.444;6.484;2024-01-10T08:15:06;14.60;;;6.17;;
3843;SDS011;1937;51.444;6.484;2024-01-10T08:17:33;18.00;;;8.20;;
3843;SDS011;1937;51.444;6.484;2024-01-10T08:20:02;21.30;;;8.37;;
3843;SDS011;1937;51.444;6.484;2024-01-10T08:22:31;12.57;;;8.10;;
3843;SDS011;1937;51.444;6.484;2024-01-10T08:24:57;18.53;;;7.80;;
3843;SDS011;1937;51.444;6.484;2024-01-10T08:27:26;15.10;;;7.63;;
3843;SDS011;1937;51.444;6.484;2024-01-10T08:29:52;16.40;;;8.47;;
3843;SDS011;1937;51.444;6.484;2024-01-10T08:32:19;19.43;;;8.63;;
3843;SDS011;1937;51.444;6.484;2024-01-10T08:34:47;14.80;;;7.80;;
3843;SDS011;1937;51.444;6.484;2024-01-10T08:37:13;19.57;;;8.20;;
3843;SDS011;1937;51.444;6.484;2024-01-10T08:39:42;17.00;;;8.97;;
3843;SDS011;1937;51.444;6.484;2024-01-10T08:42:09;18.47;;;8.87;;
3843;SDS011;1937;51.444;6.484;2024-01-10T08:44:37;15.07;;;8.30;;
3843;SDS011;1937;51.444;6.484;2024-01-10T08:47:04;17.07;;;8.87;;
3843;SDS011;1937;51.444;6.484;2024-01-10T08:49:31;17.20;;;8.97;;
3843;SDS011;1937;51.444;6.484;2024-01-10T08:51:57;16.30;;;8.20;;
3843;SDS011;1937;51.444;6.484;2024-01-10T08:54:24;22.63;;;10.37;;
3843;SDS011;1937;51.444;6.484;2024-01-10T08:56:52;23.03;;;9.87;;
3843;SDS011;1937;51.444;6.484;2024-01-10T08:59:18;16.93;;;9.10;;
3843;SDS011;1937;51.444;6.484;2024-01-10T09:01:46;16.03;;;8.00;;
3843;SDS011;1937;51.444;6.484;2024-01-10T09:04:13;18.67;;;8.87;;
3843;SDS011;1937;51.444;6.484;2024-01-10T09:06:39;25.90;;;8.23;;
3843;SDS011;1937;51.444;6.484;2024-01-10T09:09:06;16.37;;;9.70;;
3843;SDS011;1937;51.444;6.484;2024-01-10T09:11:33;16.60;;;9.73;;
3843;SDS011;1937;51.444;6.484;2024-01-10T09:13:59;21.13;;;10.30;;
3843;SDS011;1937;51.444;6.484;2024-01-10T09:16:26;23.83;;;11.20;;
3843;SDS011;1937;51.444;6.484;2024-01-10T09:18:54;20.87;;;9.20;;
3843;SDS011;1937;51.444;6.484;2024-01-10T09:21:22;16.27;;;9.63;;
3843;SDS011;1937;51.444;6.484;2024-01-10T09:23:49;17.23;;;9.80;;
3843;SDS011;1937;51.444;6.484;2024-01-10T09:26:16;18.93;;;9.10;;
3843;SDS011;1937;51.444;6.484;2024-01-10T09:28:43;24.97;;;9.90;;
3843;SDS011;1937;51.444;6.484;2024-01-10T09:31:09;19.37;;;8.63;;
3843;SDS011;1937;51.444;6.484;2024-01-10T09:33:36;17.40;;;9.03;;
3843;SDS011;1937;51.444;6.484;2024-01-10T09:36:04;31.83;;;10.70;;
3843;SDS011;1937;51.444;6.484;2024-01-10T09:38:34;19.30;;;9.07;;
3843;SDS011;1937;51.444;6.484;2024-01-10T09:41:01;20.33;;;10.03;;
3843;SDS011;1937;51.444;6.484;2024-01-10T09:43:30;16.77;;;9.27;;
3843;SDS011;1937;51.444;6.484;2024-01-10T09:45:58;26.33;;;11.80;;
3843;SDS011;1937;51.444;6.484;2024-01-10T09:48:26;21.27;;;10.80;;
3843;SDS011;1937;51.444;6.484;2024-01-10T09:50:53;24.57;;;10.70;;
3843;SDS011;1937;51.444;6.484;2024-01-10T09:53:23;18.40;;;9.40;;
3843;SDS011;1937;51.444;6.484;2024-01-10T09:55:51;18.67;;;10.17;;
3843;SDS011;1937;51.444;6.484;2024-01-10T09:58:21;25.90;;;10.60;;
3843;SDS011;1937;51.444;6.484;2024-01-10T10:00:49;24.23;;;8.87;;
3843;SDS011;1937;51.444;6.484;2024-01-10T10:03:15;17.80;;;9.37;;
3843;SDS011;1937;51.444;6.484;2024-01-10T10:05:44;16.13;;;9.70;;
3843;SDS011;1937;51.444;6.484;2024-01-10T10:08:12;19.13;;;9.63;;
3843;SDS011;1937;51.444;6.484;2024-01-10T10:10:46;23.60;;;9.77;;
3843;SDS011;1937;51.444;6.484;2024-01-10T10:13:23;17.47;;;10.57;;
3843;SDS011;1937;51.444;6.484;2024-01-10T10:15:57;18.03;;;9.63;;
3843;SDS011;1937;51.444;6.484;2024-01-10T10:18:25;18.67;;;10.57;;
3843;SDS011;1937;51.444;6.484;2024-01-10T10:21:04;21.20;;;11.30;;
3843;SDS011;1937;51.444;6.484;2024-01-10T10:23:32;23.60;;;10.67;;
3843;SDS011;1937;51.444;6.484;2024-01-10T10:26:01;26.20;;;11.20;;
3843;SDS011;1937;51.444;6.484;2024-01-10T10:28:39;23.63;;;10.23;;
3843;SDS011;1937;51.444;6.484;2024-01-10T10:31:06;23.90;;;11.43;;
3843;SDS011;1937;51.444;6.484;2024-01-10T10:33:33;26.00;;;11.20;;
3843;SDS011;1937;51.444;6.484;2024-01-10T10:35:59;21.57;;;12.03;;
3843;SDS011;1937;51.444;6.484;2024-01-10T10:38:26;25.23;;;10.40;;
3843;SDS011;1937;51.444;6.484;2024-01-10T10:40:52;19.03;;;11.00;;
3843;SDS011;1937;51.444;6.484;2024-01-10T10:43:22;21.93;;;12.03;;
3843;SDS011;1937;51.444;6.484;2024-01-10T10:45:49;23.77;;;12.27;;
3843;SDS011;1937;51.444;6.484;2024-01-10T10:48:16;23.70;;;12.07;;
3843;SDS011;1937;51.444;6.484;2024-01-10T10:50:47;25.60;;;11.60;;
3843;SDS011;1937;51.444;6.484;2024-01-10T10:53:20;18.70;;;10.53;;
3843;SDS011;1937;51.444;6.484;2024-01-10T10:55:48;23.33;;;11.10;;
3843;SDS011;1937;51.444;6.484;2024-01-10T10:58:17;22.00;;;10.90;;
3843;SDS011;1937;51.444;6.484;2024-01-10T11:00:45;27.00;;;12.27;;
3843;SDS011;1937;51.444;6.484;2024-01-10T11:03:13;20.27;;;11.47;;
3843;SDS011;1937;51.444;6.484;2024-01-10T11:05:42;28.60;;;12.87;;
3843;SDS011;1937;51.444;6.484;2024-01-10T11:08:11;20.93;;;12.80;;
3843;SDS011;1937;51.444;6.484;2024-01-10T11:10:42;24.20;;;12.20;;
3843;SDS011;1937;51.444;6.484;2024-01-10T11:13:16;21.67;;;11.07;;
3843;SDS011;1937;51.444;6.484;2024-01-10T11:16:03;24.47;;;13.33;;
3843;SDS011;1937;51.444;6.484;2024-01-10T11:18:45;24.30;;;11.93;;
3843;SDS011;1937;51.444;6.484;2024-01-10T11:21:22;28.13;;;13.27;;
3843;SDS011;1937;51.444;6.484;2024-01-10T11:23:53;29.10;;;14.23;;
3843;SDS011;1937;51.444;6.484;2024-01-10T11:26:22;26.80;;;12.63;;
3843;SDS011;1937;51.444;6.484;2024-01-10T11:28:49;33.90;;;15.13;;
3843;SDS011;1937;51.444;6.484;2024-01-10T11:31:26;22.70;;;13.63;;
3843;SDS011;1937;51.444;6.484;2024-01-10T11:33:55;22.90;;;13.07;;
3843;SDS011;1937;51.444;6.484;2024-01-10T11:36:22;24.63;;;11.77;;
3843;SDS011;1937;51.444;6.484;2024-01-10T11:38:50;24.87;;;13.30;;
3843;SDS011;1937;51.444;6.484;2024-01-10T11:41:22;20.23;;;11.60;;
3843;SDS011;1937;51.444;6.484;2024-01-10T11:47:06;23.30;;;10.40;;
3843;SDS011;1937;51.444;6.484;2024-01-10T11:49:33;20.00;;;11.57;;
3843;SDS011;1937;51.444;6.484;2024-01-10T11:52:00;21.00;;;11.00;;
3843;SDS011;1937;51.444;6.484;2024-01-10T11:54:36;23.03;;;11.43;;
3843;SDS011;1937;51.444;6.484;2024-01-10T11:57:07;26.77;;;10.70;;
3843;SDS011;1937;51.444;6.484;2024-01-10T11:59:34;18.70;;;11.43;;
3843;SDS011;1937;51.444;6.484;2024-01-10T12:02:00;20.27;;;11.07;;
3843;SDS011;1937;51.444;6.484;2024-01-10T12:04:30;22.40;;;13.20;;
3843;SDS011;1937;51.444;6.484;2024-01-10T12:06:58;22.20;;;10.40;;
3843;SDS011;1937;51.444;6.484;2024-01-10T12:09:24;27.97;;;11.60;;
3843;SDS011;1937;51.444;6.484;2024-01-10T12:11:51;21.30;;;11.13;;
3843;SDS011;1937;51.444;6.484;2024-01-10T12:14:17;25.50;;;11.47;;
3843;SDS011;1937;51.444;6.484;2024-01-10T12:16:45;22.00;;;11.80;;
3843;SDS011;1937;51.444;6.484;2024-01-10T12:19:11;23.33;;;10.00;;
3843;SDS011;1937;51.444;6.484;2024-01-10T12:21:40;20.37;;;11.03;;
3843;SDS011;1937;51.444;6.484;2024-01-10T12:24:06;21.00;;;10.53;;
3843;SDS011;1937;51.444;6.484;2024-01-10T12:26:33;18.23;;;11.30;;
3843;SDS011;1937;51.444;6.484;2024-01-10T12:29:01;23.50;;;11.90;;
3843;SDS011;1937;51.444;6.484;2024-01-10T12:31:29;28.13;;;11.13;;
3843;SDS011;1937;51.444;6.484;2024-01-10T12:33:56;16.07;;;10.77;;
3843;SDS011;1937;51.444;6.484;2024-01-10T12:36:23;20.23;;;11.40;;
3843;SDS011;1937;51.444;6.484;2024-01-10T12:38:51;16.50;;;11.27;;
3843;SDS011;1937;51.444;6.484;2024-01-10T12:41:18;23.53;;;11.67;;
3843;SDS011;1937;51.444;6.484;2024-01-10T12:43:48;19.73;;;10.90;;
3843;SDS011;1937;51.444;6.484;2024-01-10T12:46:15;22.37;;;10.90;;
3843;SDS011;1937;51.444;6.484;2024-01-10T12:48:42;20.33;;;10.80;;
3843;SDS011;1937;51.444;6.484;2024-01-10T12:51:09;23.37;;;12.73;;
3843;SDS011;1937;51.444;6.484;2024-01-10T12:53:37;15.03;;;10.70;;
3843;SDS011;1937;51.444;6.484;2024-01-10T12:56:07;25.67;;;12.07;;
3843;SDS011;1937;51.444;6.484;2024-01-10T12:58:38;35.10;;;14.70;;
3843;SDS011;1937;51.444;6.484;2024-01-10T13:01:07;26.50;;;12.40;;
3843;SDS011;1937;51.444;6.484;2024-01-10T13:03:34;22.60;;;13.40;;
3843;SDS011;1937;51.444;6.484;2024-01-10T13:06:02;25.40;;;13.10;;
3843;SDS011;1937;51.444;6.484;2024-01-10T13:08:29;19.80;;;12.10;;
3843;SDS011;1937;51.444;6.484;2024-01-10T13:10:57;22.90;;;11.93;;
3843;SDS011;1937;51.444;6.484;2024-01-10T13:13:26;19.90;;;12.80;;
3843;SDS011;1937;51.444;6.484;2024-01-10T13:15:52;21.83;;;11.43;;
3843;SDS011;1937;51.444;6.484;2024-01-10T13:18:20;21.97;;;12.20;;
3843;SDS011;1937;51.444;6.484;2024-01-10T13:20:47;23.07;;;12.00;;
3843;SDS011;1937;51.444;6.484;2024-01-10T13:23:14;25.53;;;13.57;;
3843;SDS011;1937;51.444;6.484;2024-01-10T13:25:41;23.40;;;11.83;;
3843;SDS011;1937;51.444;6.484;2024-01-10T13:28:07;22.60;;;11.67;;
3843;SDS011;1937;51.444;6.484;2024-01-10T13:30:38;28.83;;;13.20;;
3843;SDS011;1937;51.444;6.484;2024-01-10T13:33:06;25.77;;;12.33;;
3843;SDS011;1937;51.444;6.484;2024-01-10T13:35:32;21.40;;;12.23;;
3843;SDS011;1937;51.444;6.484;2024-01-10T13:37:59;21.97;;;11.93;;
3843;SDS011;1937;51.444;6.484;2024-01-10T13:40:26;31.97;;;12.77;;
3843;SDS011;1937;51.444;6.484;2024-01-10T13:42:53;24.70;;;11.47;;
3843;SDS011;1937;51.444;6.484;2024-01-10T13:45:20;26.57;;;12.90;;
3843;SDS011;1937;51.444;6.484;2024-01-10T13:47:48;22.40;;;12.87;;
3843;SDS011;1937;51.444;6.484;2024-01-10T13:50:15;18.73;;;11.77;;
3843;SDS011;1937;51.444;6.484;2024-01-10T13:52:41;25.27;;;14.20;;
3843;SDS011;1937;51.444;6.484;2024-01-10T13:55:08;23.60;;;12.00;;
3843;SDS011;1937;51.444;6.484;2024-01-10T13:57:35;26.37;;;12.80;;
3843;SDS011;1937;51.444;6.484;2024-01-10T14:00:02;29.10;;;12.77;;
3843;SDS011;1937;51.444;6.484;2024-01-10T14:02:31;25.70;;;12.77;;
3843;SDS011;1937;51.444;6.484;2024-01-10T14:05:01;20.50;;;11.57;;
3843;SDS011;1937;51.444;6.484;2024-01-10T14:07:30;22.87;;;11.53;;
3843;SDS011;1937;51.444;6.484;2024-01-10T14:09:57;23.90;;;11.60;;
3843;SDS011;1937;51.444;6.484;2024-01-10T14:12:24;23.97;;;13.30;;
3843;SDS011;1937;51.444;6.484;2024-01-10T14:14:50;25.20;;;12.67;;
3843;SDS011;1937;51.444;6.484;2024-01-10T14:17:17;30.10;;;14.07;;
3843;SDS011;1937;51.444;6.484;2024-01-10T14:19:44;24.43;;;11.90;;
3843;SDS011;1937;51.444;6.484;2024-01-10T14:22:12;25.70;;;12.97;;
3843;SDS011;1937;51.444;6.484;2024-01-10T14:24:38;30.97;;;12.33;;
3843;SDS011;1937;51.444;6.484;2024-01-10T14:27:05;28.13;;;11.97;;
3843;SDS011;1937;51.444;6.484;2024-01-10T14:29:33;23.30;;;12.00;;
3843;SDS011;1937;51.444;6.484;2024-01-10T14:31:59;31.23;;;12.37;;
3843;SDS011;1937;51.444;6.484;2024-01-10T14:34:26;21.83;;;11.87;;
3843;SDS011;1937;51.444;6.484;2024-01-10T14:36:52;22.90;;;13.10;;
3843;SDS011;1937;51.444;6.484;2024-01-10T14:39:20;26.47;;;12.90;;
3843;SDS011;1937;51.444;6.484;2024-01-10T14:41:47;23.60;;;11.53;;
3843;SDS011;1937;51.444;6.484;2024-01-10T14:44:14;29.67;;;12.83;;
3843;SDS011;1937;51.444;6.484;2024-01-10T14:46:41;20.03;;;11.10;;
3843;SDS011;1937;51.444;6.484;2024-01-10T14:49:08;25.13;;;11.60;;
3843;SDS011;1937;51.444;6.484;2024-01-10T14:51:35;25.30;;;10.03;;
3843;SDS011;1937;51.444;6.484;2024-01-10T14:54:01;21.27;;;11.90;;
3843;SDS011;1937;51.444;6.484;2024-01-10T14:56:30;27.20;;;12.20;;
3843;SDS011;1937;51.444;6.484;2024-01-10T14:58:56;19.60;;;10.97;;
3843;SDS011;1937;51.444;6.484;2024-01-10T15:01:23;25.00;;;11.20;;
3843;SDS011;1937;51.444;6.484;2024-01-10T15:03:49;23.40;;;11.13;;
3843;SDS011;1937;51.444;6.484;2024-01-10T15:06:18;19.10;;;11.20;;
3843;SDS011;1937;51.444;6.484;2024-01-10T15:08:44;15.90;;;10.23;;